Ash Shaykh Uthman, Yemen
Current Conditions -  °F | °C
As of 6:00 AM on Saturday 22 Nov 2014 (Local Time) from OYAA Reporting Station
Few Clouds Few Clouds  
Wind Chill: 75°   Ceiling: Unl
Heat Index: 75°   Visibility: 6mi
Dew Point: 66°   Wind: 5mph
Humidity: 73%   Direction: 40°NE
Pressure: 30"   Gusts: NA
Location:  12.87°N, 44.98°E
Report Text: OYAA 220300Z 04004KT 9999 FEW018 24/19 Q1016 NOSIG
Loading
Personal Weather Stations






























Interactive Weather Map New forecast layout! Learn more

10-Day Weather Forecast

Advertisements
Track Severe Weather on mobile